Time;durP1;ratioP1;P1;durP2;ratioP2;P2;SDS_P1;SDS_P2;PMS_P1;PMS_P2;Temp;Humidity;BMP_temperature;BMP_pressure;BME280_temperature;BME280_humidity;BME280_pressure;Samples;Min_cycle;Max_cycle;Signal;HPM_P1;HPM_P2
2024/01/30 00:01:15;;;;;;;;;;;;;;;11.10;87.66;101687.84;10292055;28;96885;-82
2024/01/30 00:06:20;;;;;;;;;;;;;;;11.03;87.54;101688.81;10292058;28;96705;-82
2024/01/30 00:11:25;;;;;;;;;;;;;;;10.91;88.97;101696.94;10290020;28;96660;-82
2024/01/30 00:16:29;;;;;;;;;;;;;;;10.90;89.36;101699.59;10290978;28;96791;-82
2024/01/30 00:21:32;;;;;;;;;;;;;;;10.87;88.71;101705.78;10291458;28;97362;-81
2024/01/30 00:26:36;;;;;;;;;;;;;;;11.07;88.38;101703.69;10290786;28;96729;-80
2024/01/30 00:31:39;;;;;;;;;;;;;;;10.95;87.17;101709.16;10291467;28;97242;-81
2024/01/30 00:36:44;;;;;;;;;;;;;;;10.86;87.68;101711.09;10291207;28;97145;-82
2024/01/30 00:41:48;;;;;;;;;;;;;;;10.82;88.64;101710.28;10290038;28;96852;-82
2024/01/30 00:46:51;;;;;;;;;;;;;;;10.73;89.27;101696.41;10288509;28;96741;-81
2024/01/30 00:51:55;;;;;;;;;;;;;;;10.90;89.47;101704.88;10290006;28;96866;-82
2024/01/30 00:56:59;;;;;;;;;;;;;;;11.05;88.74;101702.84;10290163;28;96679;-81
2024/01/30 01:02:03;;;;;;;;;;;;;;;11.17;88.44;101705.28;10290066;28;97098;-82
2024/01/30 01:07:06;;;;;;;;;;;;;;;10.99;88.45;101700.28;10289584;28;97375;-82
2024/01/30 01:12:11;;;;;;;;;;;;;;;10.86;88.56;101690.91;10290188;28;97219;-82
2024/01/30 01:17:14;;;;;;;;;;;;;;;10.68;88.35;101693.00;10289321;28;97462;-81
2024/01/30 01:22:18;;;;;;;;;;;;;;;10.49;89.44;101696.81;10289530;28;97044;-81
2024/01/30 01:27:23;;;;;;;;;;;;;;;10.38;90.37;101696.13;10289728;28;97341;-81
2024/01/30 01:32:26;;;;;;;;;;;;;;;10.33;90.46;101698.84;10288637;28;97272;-82
2024/01/30 01:37:29;;;;;;;;;;;;;;;10.49;89.27;101700.31;10288025;28;97074;-80
2024/01/30 01:42:35;;;;;;;;;;;;;;;10.42;89.27;101697.81;10288860;28;96690;-81
2024/01/30 01:47:39;;;;;;;;;;;;;;;10.39;89.94;101703.97;10289424;28;96862;-82
2024/01/30 01:52:42;;;;;;;;;;;;;;;10.36;89.85;101701.41;10288713;28;96821;-82
2024/01/30 01:57:47;;;;;;;;;;;;;;;10.39;89.74;101706.63;10288439;28;96987;-81
2024/01/30 02:02:50;;;;;;;;;;;;;;;10.37;89.09;101711.03;10304308;28;97385;-82
2024/01/30 02:07:54;;;;;;;;;;;;;;;10.42;89.76;101703.94;10328678;28;96726;-83
2024/01/30 02:12:59;;;;;;;;;;;;;;;10.32;89.46;101702.34;10329742;28;96707;-82
2024/01/30 02:18:02;;;;;;;;;;;;;;;10.52;89.26;101700.28;10327811;28;96968;-82
2024/01/30 02:23:08;;;;;;;;;;;;;;;10.64;90.89;101702.69;10328895;28;97252;-81
2024/01/30 02:28:12;;;;;;;;;;;;;;;10.54;89.86;101700.25;10327498;28;96785;-82
2024/01/30 02:33:15;;;;;;;;;;;;;;;10.36;88.93;101700.53;10329879;28;96625;-82
2024/01/30 02:38:20;;;;;;;;;;;;;;;10.30;89.50;101700.63;10329836;28;97735;-81
2024/01/30 02:43:23;;;;;;;;;;;;;;;10.43;90.73;101692.53;10293979;28;96844;-83
2024/01/30 02:48:26;;;;;;;;;;;;;;;10.44;89.41;101699.50;10293293;28;96741;-81
2024/01/30 02:53:31;;;;;;;;;;;;;;;10.52;89.35;101697.66;10294638;28;97236;-81
2024/01/30 02:58:34;;;;;;;;;;;;;;;10.70;88.63;101706.97;10293711;28;97571;-81
2024/01/30 03:03:37;;;;;;;;;;;;;;;10.44;88.37;101702.13;10294245;28;97612;-80
2024/01/30 03:08:42;;;;;;;;;;;;;;;10.45;89.06;101714.44;10293228;28;96734;-82
2024/01/30 03:13:45;;;;;;;;;;;;;;;10.48;88.85;101713.50;10293993;28;97238;-80
2024/01/30 03:18:48;;;;;;;;;;;;;;;10.28;88.97;101709.41;10291891;28;96738;-80
2024/01/30 03:23:53;;;;;;;;;;;;;;;10.22;89.26;101712.16;10293183;28;96698;-81
2024/01/30 03:28:56;;;;;;;;;;;;;;;10.12;90.59;101707.03;10292894;28;97113;-82
2024/01/30 03:33:59;;;;;;;;;;;;;;;10.05;90.64;101711.53;10292889;28;97819;-81
2024/01/30 03:39:04;;;;;;;;;;;;;;;10.10;90.49;101708.81;10292259;28;97014;-81
2024/01/30 03:44:07;;;;;;;;;;;;;;;10.28;89.77;101704.16;10265405;28;96664;-82
2024/01/30 03:49:10;;;;;;;;;;;;;;;10.38;90.07;101704.00;10291927;28;97340;-81
2024/01/30 03:54:16;;;;;;;;;;;;;;;10.38;90.46;101704.88;10293199;28;96881;-82
2024/01/30 03:59:23;;;;;;;;;;;;;;;10.45;90.45;101703.91;10291724;28;96664;-81
2024/01/30 04:04:27;;;;;;;;;;;;;;;10.50;88.64;101716.97;10291767;28;97257;-82
2024/01/30 04:09:32;;;;;;;;;;;;;;;10.46;89.55;101712.63;10290442;28;96930;-81
2024/01/30 04:14:35;;;;;;;;;;;;;;;10.42;89.23;101709.19;10291282;28;97588;-82
2024/01/30 04:19:39;;;;;;;;;;;;;;;10.42;89.80;101703.94;10291469;28;96678;-82
2024/01/30 04:24:43;;;;;;;;;;;;;;;10.50;90.12;101709.06;10290858;28;96660;-83
2024/01/30 04:29:47;;;;;;;;;;;;;;;10.50;89.95;101709.94;10290565;28;96616;-83
2024/01/30 04:34:50;;;;;;;;;;;;;;;10.55;89.38;101699.34;10297403;28;97087;-81
2024/01/30 04:39:55;;;;;;;;;;;;;;;10.50;89.38;101703.81;10324597;28;96732;-81
2024/01/30 04:44:58;;;;;;;;;;;;;;;10.49;89.60;101700.31;10250013;28;96839;-81
2024/01/30 04:50:04;;;;;;;;;;;;;;;10.53;89.90;101706.38;10249247;28;97078;-81
2024/01/30 04:55:09;;;;;;;;;;;;;;;10.55;88.74;101702.84;10284115;28;96928;-81
2024/01/30 05:00:13;;;;;;;;;;;;;;;10.53;89.01;101703.75;10288852;28;97273;-82
2024/01/30 05:05:16;;;;;;;;;;;;;;;10.50;89.46;101706.44;10290272;28;97058;-82
2024/01/30 05:10:21;;;;;;;;;;;;;;;10.51;89.64;101706.41;10289954;28;96755;-82
2024/01/30 05:15:24;;;;;;;;;;;;;;;10.49;88.61;101697.66;10289252;28;96898;-81
2024/01/30 05:20:28;;;;;;;;;;;;;;;10.47;89.31;101701.25;10289482;28;97363;-81
2024/01/30 05:25:33;;;;;;;;;;;;;;;10.38;88.85;101694.38;10289952;28;96806;-82
2024/01/30 05:30:36;;;;;;;;;;;;;;;10.39;89.91;101688.19;10289176;28;97135;-82
2024/01/30 05:35:39;;;;;;;;;;;;;;;10.43;89.43;101684.63;10289710;28;96649;-82
2024/01/30 05:40:44;;;;;;;;;;;;;;;10.33;89.82;101683.03;10278853;28;96986;-81
2024/01/30 05:45:47;;;;;;;;;;;;;;;10.31;89.73;101673.44;10311178;28;97293;-82
2024/01/30 05:50:50;;;;;;;;;;;;;;;10.26;89.55;101661.19;10328461;28;97318;-82
2024/01/30 05:55:55;;;;;;;;;;;;;;;10.20;89.18;101673.59;10329411;28;96700;-82
2024/01/30 06:00:58;;;;;;;;;;;;;;;10.23;89.27;101674.41;10328404;28;96749;-81
2024/01/30 06:06:01;;;;;;;;;;;;;;;10.30;89.38;101685.69;10329512;28;97134;-82
2024/01/30 06:11:06;;;;;;;;;;;;;;;10.34;88.95;101676.00;10334674;28;96818;-82
2024/01/30 06:16:11;;;;;;;;;;;;;;;10.29;88.96;101681.34;10335047;28;96744;-81
2024/01/30 06:21:15;;;;;;;;;;;;;;;10.34;88.45;101683.88;10335862;28;97209;-82
2024/01/30 06:26:19;;;;;;;;;;;;;;;10.31;88.65;101697.97;10316274;28;96632;-82
2024/01/30 06:31:22;;;;;;;;;;;;;;;10.35;88.88;101696.16;10294302;28;96770;-82
2024/01/30 06:36:26;;;;;;;;;;;;;;;10.33;88.49;101705.84;10322827;28;97438;-82
2024/01/30 06:41:30;;;;;;;;;;;;;;;10.36;88.52;101709.31;10317755;28;96646;-82
2024/01/30 06:46:34;;;;;;;;;;;;;;;10.35;88.77;101712.81;10293658;28;97120;-82
2024/01/30 06:51:37;;;;;;;;;;;;;;;10.35;88.58;101710.16;10294582;28;96634;-81
2024/01/30 06:56:42;;;;;;;;;;;;;;;10.36;87.96;101711.94;10293602;28;97007;-82
2024/01/30 07:01:45;;;;;;;;;;;;;;;10.37;88.40;101720.69;10293703;28;96778;-82
2024/01/30 07:06:48;;;;;;;;;;;;;;;10.34;88.97;101723.34;10293520;28;97039;-82
2024/01/30 07:11:55;;;;;;;;;;;;;;;10.38;88.60;101715.41;10293584;28;96816;-82
2024/01/30 07:16:58;;;;;;;;;;;;;;;10.36;88.46;101726.84;10293447;28;96813;-81
2024/01/30 07:22:01;;;;;;;;;;;;;;;10.38;88.91;101731.19;10292550;28;97027;-82
2024/01/30 07:27:06;;;;;;;;;;;;;;;10.36;88.74;101732.09;10318073;28;96791;-82
2024/01/30 07:32:09;;;;;;;;;;;;;;;10.43;88.71;101726.72;10306969;28;97162;-82
2024/01/30 07:37:15;;;;;;;;;;;;;;;10.43;88.84;101721.47;10292268;28;97264;-82
2024/01/30 07:42:20;;;;;;;;;;;;;;;10.59;88.10;101730.88;10292936;28;96813;-82
2024/01/30 07:47:23;;;;;;;;;;;;;;;10.55;87.84;101733.56;10291381;28;96827;-82
2024/01/30 07:52:26;;;;;;;;;;;;;;;10.64;88.55;101738.69;10292461;28;97625;-82
2024/01/30 07:57:31;;;;;;;;;;;;;;;10.73;87.63;101751.69;10291705;28;96965;-82
2024/01/30 08:02:34;;;;;;;;;;;;;;;10.79;87.62;101748.94;10292323;28;96833;-82
2024/01/30 08:07:37;;;;;;;;;;;;;;;10.80;86.73;101759.44;10292152;28;97121;-82
2024/01/30 08:12:42;;;;;;;;;;;;;;;10.95;86.66;101758.34;10291417;28;97237;-83
2024/01/30 08:17:45;;;;;;;;;;;;;;;10.96;86.31;101758.31;10291487;28;97824;-82
2024/01/30 08:22:49;;;;;;;;;;;;;;;11.04;85.98;101766.09;10289790;28;96685;-82
2024/01/30 08:27:53;;;;;;;;;;;;;;;11.11;85.95;101762.47;10290510;28;97352;-82
2024/01/30 08:32:57;;;;;;;;;;;;;;;11.16;85.50;101756.22;10290074;28;97050;-82
2024/01/30 08:38:01;;;;;;;;;;;;;;;11.26;84.89;101764.84;10290457;28;96707;-83
2024/01/30 08:43:06;;;;;;;;;;;;;;;11.35;84.62;101760.25;10289771;28;96771;-82
2024/01/30 08:48:09;;;;;;;;;;;;;;;11.58;83.80;101766.88;10289425;28;96648;-83
2024/01/30 08:53:13;;;;;;;;;;;;;;;11.76;83.41;101766.47;10290715;28;96859;-82
2024/01/30 08:58:19;;;;;;;;;;;;;;;11.97;82.44;101774.81;10291070;28;97483;-82
2024/01/30 09:03:22;;;;;;;;;;;;;;;12.03;81.72;101779.13;10289904;28;97165;-82
2024/01/30 09:08:26;;;;;;;;;;;;;;;12.08;81.68;101769.31;10290178;28;97368;-82
2024/01/30 09:13:30;;;;;;;;;;;;;;;12.06;81.57;101774.63;10288819;28;96934;-81
2024/01/30 09:18:34;;;;;;;;;;;;;;;12.24;80.75;101773.34;10289393;28;96811;-82
2024/01/30 09:23:37;;;;;;;;;;;;;;;12.34;80.10;101772.25;10289425;28;96806;-82
2024/01/30 09:28:42;;;;;;;;;;;;;;;12.40;79.98;101769.47;10288764;28;96681;-81
2024/01/30 09:33:47;;;;;;;;;;;;;;;12.57;79.19;101762.00;10288993;28;96806;-82
2024/01/30 09:38:51;;;;;;;;;;;;;;;12.60;78.70;101764.59;10289408;28;97550;-83
2024/01/30 09:43:58;;;;;;;;;;;;;;;12.65;78.58;101770.69;10292990;28;96827;-81
2024/01/30 09:49:03;;;;;;;;;;;;;;;12.83;77.88;101772.84;10296428;28;97430;-82
2024/01/30 09:54:09;;;;;;;;;;;;;;;12.90;77.57;101782.38;10296117;28;97269;-82
2024/01/30 09:59:14;;;;;;;;;;;;;;;12.97;77.09;101783.06;10296045;28;96705;-82
2024/01/30 10:04:17;;;;;;;;;;;;;;;13.11;76.15;101767.72;10294392;28;96692;-81
2024/01/30 10:09:20;;;;;;;;;;;;;;;13.32;75.92;101778.63;10294895;28;96742;-82
2024/01/30 10:14:26;;;;;;;;;;;;;;;13.32;75.43;101783.91;10295452;28;96972;-82
2024/01/30 10:19:29;;;;;;;;;;;;;;;13.36;75.04;101788.19;10294892;28;96854;-82
2024/01/30 10:24:34;;;;;;;;;;;;;;;13.48;75.00;101789.66;10294837;28;96880;-82
2024/01/30 10:29:39;;;;;;;;;;;;;;;13.34;75.15;101797.97;10294970;28;97169;-81
2024/01/30 10:34:42;;;;;;;;;;;;;;;13.32;74.90;101786.56;10325066;28;97178;-82
2024/01/30 10:39:46;;;;;;;;;;;;;;;13.28;75.12;101803.41;10332144;28;97496;-82
2024/01/30 10:44:57;;;;;;;;;;;;;;;13.33;74.91;101795.34;10252942;28;97126;-82
2024/01/30 10:50:01;;;;;;;;;;;;;;;13.40;74.30;101802.19;10271583;28;97090;-81
2024/01/30 10:55:06;;;;;;;;;;;;;;;13.49;73.67;101792.25;10291430;28;96814;-82
2024/01/30 11:00:12;;;;;;;;;;;;;;;13.60;73.78;101791.97;10293845;28;97319;-82
2024/01/30 11:05:16;;;;;;;;;;;;;;;13.68;73.19;101798.78;10294039;28;97476;-82
2024/01/30 11:10:19;;;;;;;;;;;;;;;13.82;72.96;101793.09;10293813;28;96845;-81
2024/01/30 11:15:26;;;;;;;;;;;;;;;13.94;72.59;101799.81;10292750;28;97031;-81
2024/01/30 11:20:31;;;;;;;;;;;;;;;14.19;72.17;101798.22;10292988;28;97325;-81
2024/01/30 11:25:34;;;;;;;;;;;;;;;14.27;71.49;101798.84;10322359;28;97027;-82
2024/01/30 11:30:39;;;;;;;;;;;;;;;14.19;71.39;101777.03;10334024;28;96827;-81
2024/01/30 11:35:43;;;;;;;;;;;;;;;14.30;71.18;101780.22;10334054;28;97315;-82
2024/01/30 11:40:48;;;;;;;;;;;;;;;14.29;70.47;101765.25;10317958;28;97413;-82
2024/01/30 11:45:53;;;;;;;;;;;;;;;14.36;70.76;101761.50;10290819;28;97292;-81
2024/01/30 11:50:56;;;;;;;;;;;;;;;14.53;70.38;101753.88;10292181;28;96792;-82
2024/01/30 11:55:59;;;;;;;;;;;;;;;14.67;69.25;101741.06;10291866;28;96677;-82
2024/01/30 12:01:04;;;;;;;;;;;;;;;14.80;69.24;101748.56;10333146;28;96810;-82
2024/01/30 12:06:08;;;;;;;;;;;;;;;14.92;68.79;101736.69;10332243;28;96698;-82
2024/01/30 12:11:11;;;;;;;;;;;;;;;15.22;68.72;101725.03;10321756;28;96657;-82
2024/01/30 12:16:15;;;;;;;;;;;;;;;15.15;67.75;101723.50;10324248;22;97370;-81
2024/01/30 12:21:19;;;;;;;;;;;;;;;15.42;67.67;101722.56;10332944;28;96688;-81
2024/01/30 12:26:22;;;;;;;;;;;;;;;15.47;67.16;101712.66;10332315;28;97381;-82
2024/01/30 12:31:29;;;;;;;;;;;;;;;15.56;66.96;101707.00;10332283;28;96642;-82
2024/01/30 12:36:33;;;;;;;;;;;;;;;15.75;66.57;101707.19;10331534;28;97234;-82
2024/01/30 12:41:36;;;;;;;;;;;;;;;16.00;65.49;101691.16;10313941;28;97291;-82
2024/01/30 12:46:40;;;;;;;;;;;;;;;16.14;65.63;101694.16;10289853;28;96705;-81
2024/01/30 12:51:43;;;;;;;;;;;;;;;16.47;65.35;101685.72;10330774;28;96952;-80
2024/01/30 12:56:47;;;;;;;;;;;;;;;16.71;64.70;101683.84;10331216;28;97163;-82
2024/01/30 13:01:51;;;;;;;;;;;;;;;16.98;63.29;101669.38;10330764;28;97689;-81
2024/01/30 13:06:55;;;;;;;;;;;;;;;17.48;62.41;101662.72;10331545;28;96590;-82
2024/01/30 13:11:58;;;;;;;;;;;;;;;17.90;60.56;101655.38;10331600;28;97658;-81
2024/01/30 13:17:03;;;;;;;;;;;;;;;18.19;58.33;101665.47;10329538;28;96857;-82
2024/01/30 13:22:06;;;;;;;;;;;;;;;18.76;56.90;101653.78;10330997;28;97555;-82
2024/01/30 13:27:09;;;;;;;;;;;;;;;19.03;55.28;101639.00;10329489;28;97291;-82
2024/01/30 13:32:14;;;;;;;;;;;;;;;19.28;55.18;101638.56;10330334;28;97311;-82
2024/01/30 13:37:17;;;;;;;;;;;;;;;19.11;55.15;101635.94;10329918;28;96736;-83
2024/01/30 13:42:20;;;;;;;;;;;;;;;18.56;55.35;101639.75;10330707;28;97662;-82
2024/01/30 13:47:25;;;;;;;;;;;;;;;19.38;54.27;101634.47;10329315;28;96895;-81
2024/01/30 13:52:28;;;;;;;;;;;;;;;19.82;52.88;101629.38;10329388;28;96812;-82
2024/01/30 13:57:40;;;;;;;;;;;;;;;19.67;51.81;101622.22;10330269;28;96736;-82
2024/01/30 14:02:45;;;;;;;;;;;;;;;19.50;51.87;101632.94;10329609;28;96822;-82
2024/01/30 14:07:48;;;;;;;;;;;;;;;19.36;52.07;101609.66;10329086;28;97087;-82
2024/01/30 14:12:51;;;;;;;;;;;;;;;19.10;52.78;101618.19;10336528;28;97435;-81
2024/01/30 14:17:56;;;;;;;;;;;;;;;18.85;53.29;101602.59;10368729;28;97142;-82
2024/01/30 14:23:01;;;;;;;;;;;;;;;19.55;51.84;101601.53;10369679;28;96790;-82
2024/01/30 14:28:04;;;;;;;;;;;;;;;19.56;51.33;101605.94;10369983;28;96602;-82
2024/01/30 14:33:11;;;;;;;;;;;;;;;19.87;51.10;101595.25;10376255;28;96761;-82
2024/01/30 14:38:14;;;;;;;;;;;;;;;19.83;51.85;101601.72;10374262;28;96776;-82
2024/01/30 14:43:18;;;;;;;;;;;;;;;19.57;52.16;101603.16;10335326;28;96842;-82
2024/01/30 14:48:23;;;;;;;;;;;;;;;19.41;52.19;101607.63;10335685;28;97182;-82
2024/01/30 14:53:26;;;;;;;;;;;;;;;19.49;52.07;101609.88;10335995;28;97216;-81
2024/01/30 14:58:30;;;;;;;;;;;;;;;19.15;53.53;101617.00;10334815;28;96725;-82
2024/01/30 15:03:35;;;;;;;;;;;;;;;20.04;51.25;101608.53;10339723;28;97091;-82
2024/01/30 15:08:38;;;;;;;;;;;;;;;20.37;50.81;101601.25;10374503;28;96939;-82
2024/01/30 15:13:42;;;;;;;;;;;;;;;20.13;51.28;101618.69;10334853;28;96953;-82
2024/01/30 15:18:46;;;;;;;;;;;;;;;20.13;51.16;101621.38;10333989;28;97141;-82
2024/01/30 15:23:50;;;;;;;;;;;;;;;20.05;51.02;101618.25;10366050;28;97295;-82
2024/01/30 15:28:53;;;;;;;;;;;;;;;20.18;50.99;101613.94;10375301;28;97056;-82
2024/01/30 15:33:57;;;;;;;;;;;;;;;20.51;49.89;101625.38;10374960;28;97223;-82
2024/01/30 15:39:01;;;;;;;;;;;;;;;20.63;49.76;101613.94;10343073;28;97064;-82
2024/01/30 15:44:04;;;;;;;;;;;;;;;20.80;49.73;101607.56;10333722;28;96885;-82
2024/01/30 15:49:09;;;;;;;;;;;;;;;20.50;49.56;101606.75;10333131;28;96817;-81
2024/01/30 15:54:12;;;;;;;;;;;;;;;20.73;50.33;101614.25;10333757;28;97783;-82
2024/01/30 15:59:15;;;;;;;;;;;;;;;20.10;50.65;101617.03;10332139;28;96691;-81
2024/01/30 16:04:21;;;;;;;;;;;;;;;19.94;51.07;101615.34;10332680;28;97085;-81
2024/01/30 16:09:24;;;;;;;;;;;;;;;19.60;51.20;101621.69;10332314;28;96822;-82
2024/01/30 16:14:27;;;;;;;;;;;;;;;19.64;51.68;101635.72;10333074;28;96838;-81
2024/01/30 16:19:33;;;;;;;;;;;;;;;19.15;52.67;101635.69;10332557;28;97582;-82
2024/01/30 16:24:36;;;;;;;;;;;;;;;18.77;53.76;101657.28;10332271;28;97057;-81
2024/01/30 16:29:40;;;;;;;;;;;;;;;18.71;54.13;101652.28;10346935;28;96690;-82
2024/01/30 16:34:45;;;;;;;;;;;;;;;18.58;54.09;101654.69;10350222;28;96780;-82
2024/01/30 16:39:48;;;;;;;;;;;;;;;18.90;54.15;101663.75;10331542;28;96767;-82
2024/01/30 16:44:51;;;;;;;;;;;;;;;18.62;54.07;101656.28;10332030;28;97321;-82
2024/01/30 16:49:56;;;;;;;;;;;;;;;18.51;54.89;101660.41;10370421;28;97478;-81
2024/01/30 16:54:59;;;;;;;;;;;;;;;18.26;55.25;101668.75;10372048;28;97234;-82
2024/01/30 17:00:03;;;;;;;;;;;;;;;17.92;56.36;101674.81;10372489;28;97246;-81
2024/01/30 17:05:08;;;;;;;;;;;;;;;17.68;57.02;101680.41;10345610;28;97268;-82
2024/01/30 17:10:25;;;;;;;;;;;;;;;17.51;57.92;101675.00;10330572;28;96596;-81
2024/01/30 17:15:28;;;;;;;;;;;;;;;17.39;58.10;101681.72;10330219;28;96930;-81
2024/01/30 17:20:33;;;;;;;;;;;;;;;17.18;59.28;101681.78;10331397;28;97306;-81
2024/01/30 17:25:38;;;;;;;;;;;;;;;17.05;59.57;101685.00;10331120;28;96874;-81
2024/01/30 17:30:41;;;;;;;;;;;;;;;16.92;59.98;101693.56;10329991;28;97102;-81
2024/01/30 17:35:46;;;;;;;;;;;;;;;16.81;60.53;101698.47;10330020;28;96814;-81
2024/01/30 17:40:50;;;;;;;;;;;;;;;16.77;60.41;101696.88;10357932;28;96775;-81
2024/01/30 17:46:11;;;;;;;;;;;;;;;16.59;61.25;101698.50;10329794;28;96918;-81
2024/01/30 17:51:16;;;;;;;;;;;;;;;16.50;61.58;101705.97;10329647;28;96809;-81
2024/01/30 17:56:19;;;;;;;;;;;;;;;16.41;61.52;101698.41;10357959;28;96667;-81
2024/01/30 18:01:22;;;;;;;;;;;;;;;16.32;62.24;101707.59;10371173;28;96696;-81
2024/01/30 18:06:27;;;;;;;;;;;;;;;16.23;62.44;101720.34;10355684;28;97283;-81
2024/01/30 18:11:31;;;;;;;;;;;;;;;16.25;62.15;101721.16;10349100;28;97173;-81
2024/01/30 18:16:34;;;;;;;;;;;;;;;16.14;62.34;101726.88;10378180;28;96998;-82
2024/01/30 18:21:39;;;;;;;;;;;;;;;16.11;62.69;101736.78;10377725;28;96606;-82
2024/01/30 18:26:42;;;;;;;;;;;;;;;15.95;63.02;101747.09;10377647;28;97081;-81
2024/01/30 18:31:45;;;;;;;;;;;;;;;15.87;63.23;101744.72;10375654;28;97445;-81
2024/01/30 18:36:51;;;;;;;;;;;;;;;15.75;63.50;101747.84;10350810;28;96791;-81
2024/01/30 18:41:54;;;;;;;;;;;;;;;15.71;63.55;101748.03;10335251;28;96796;-82
2024/01/30 18:46:58;;;;;;;;;;;;;;;15.65;64.81;101753.53;10360200;28;96642;-82
2024/01/30 18:52:04;;;;;;;;;;;;;;;15.62;64.39;101743.94;10376498;28;96804;-82
2024/01/30 18:57:07;;;;;;;;;;;;;;;15.43;65.72;101750.81;10376556;28;97251;-81
2024/01/30 19:02:11;;;;;;;;;;;;;;;15.48;65.91;101751.53;10365696;28;96711;-81
2024/01/30 19:07:16;;;;;;;;;;;;;;;15.39;66.15;101762.44;10335717;28;96746;-81
2024/01/30 19:12:20;;;;;;;;;;;;;;;15.14;67.07;101774.81;10334471;28;96808;-81
2024/01/30 19:17:24;;;;;;;;;;;;;;;15.22;66.50;101763.91;10333231;28;97196;-80
2024/01/30 19:22:28;;;;;;;;;;;;;;;15.27;67.14;101767.31;10333700;28;96734;-80
2024/01/30 19:27:33;;;;;;;;;;;;;;;15.26;67.63;101769.13;10333824;28;97360;-80
2024/01/30 19:32:36;;;;;;;;;;;;;;;15.24;68.00;101778.88;10333590;28;96685;-80
2024/01/30 19:37:41;;;;;;;;;;;;;;;15.20;67.44;101781.69;10356156;28;97106;-81
2024/01/30 19:42:44;;;;;;;;;;;;;;;15.16;68.04;101783.59;10348065;28;96843;-81
2024/01/30 19:47:47;;;;;;;;;;;;;;;15.12;68.07;101784.59;10333320;28;97343;-81
2024/01/30 19:52:52;;;;;;;;;;;;;;;15.10;68.35;101789.09;10334285;28;96806;-81
2024/01/30 19:57:55;;;;;;;;;;;;;;;15.09;67.84;101790.00;10333990;28;96628;-80
2024/01/30 20:02:58;;;;;;;;;;;;;;;15.08;68.65;101793.56;10333397;28;97307;-80
2024/01/30 20:08:03;;;;;;;;;;;;;;;15.06;68.15;101803.34;10333086;28;96962;-80
2024/01/30 20:13:07;;;;;;;;;;;;;;;15.04;69.23;101801.69;10331928;28;97280;-80
2024/01/30 20:18:10;;;;;;;;;;;;;;;15.03;68.95;101808.75;10332273;28;97394;-81
2024/01/30 20:23:15;;;;;;;;;;;;;;;15.00;69.30;101816.81;10332279;28;96722;-82
2024/01/30 20:28:19;;;;;;;;;;;;;;;14.99;69.19;101815.06;10331193;28;96616;-80
2024/01/30 20:33:22;;;;;;;;;;;;;;;14.94;69.82;101824.97;10332188;28;97346;-81
2024/01/30 20:38:27;;;;;;;;;;;;;;;14.90;69.72;101825.13;10331583;28;96702;-82
2024/01/30 20:43:30;;;;;;;;;;;;;;;14.87;69.71;101836.69;10332138;28;96945;-81
2024/01/30 20:48:34;;;;;;;;;;;;;;;14.86;69.18;101824.34;10331970;28;96870;-80
2024/01/30 20:53:39;;;;;;;;;;;;;;;14.80;69.64;101835.13;10331271;28;97259;-82
2024/01/30 20:58:43;;;;;;;;;;;;;;;14.83;70.13;101837.72;10331626;28;96662;-81
2024/01/30 21:03:47;;;;;;;;;;;;;;;14.85;70.39;101846.50;10330475;28;96897;-82
2024/01/30 21:08:52;;;;;;;;;;;;;;;14.84;70.19;101844.72;10330676;28;97196;-81
2024/01/30 21:13:55;;;;;;;;;;;;;;;14.84;70.50;101836.78;10330653;28;96752;-81
2024/01/30 21:18:58;;;;;;;;;;;;;;;14.77;70.79;101848.50;10330650;28;97297;-81
2024/01/30 21:24:03;;;;;;;;;;;;;;;14.76;71.02;101846.78;10330545;28;97147;-80
2024/01/30 21:29:07;;;;;;;;;;;;;;;14.75;70.31;101851.19;10330557;28;96652;-82
2024/01/30 21:34:10;;;;;;;;;;;;;;;14.73;70.59;101841.56;10332151;28;96653;-81
2024/01/30 21:39:15;;;;;;;;;;;;;;;14.76;70.86;101852.06;10364532;28;97566;-81
2024/01/30 21:44:18;;;;;;;;;;;;;;;14.69;70.76;101854.06;10343115;28;96702;-81
2024/01/30 21:49:21;;;;;;;;;;;;;;;14.64;71.10;101855.94;10343114;28;97375;-81
2024/01/30 21:54:26;;;;;;;;;;;;;;;14.62;71.33;101847.22;10342826;28;96837;-81
2024/01/30 21:59:30;;;;;;;;;;;;;;;14.60;70.70;101851.69;10343609;28;97157;-81
2024/01/30 22:04:33;;;;;;;;;;;;;;;14.56;71.24;101857.09;10343066;28;96751;-80
2024/01/30 22:09:38;;;;;;;;;;;;;;;14.50;71.27;101852.88;10343359;28;97413;-80
2024/01/30 22:14:41;;;;;;;;;;;;;;;14.49;71.44;101851.13;10342587;28;96997;-81
2024/01/30 22:19:45;;;;;;;;;;;;;;;14.48;71.54;101851.19;10342920;28;97153;-81
2024/01/30 22:24:49;;;;;;;;;;;;;;;14.43;71.85;101866.34;10342404;28;97207;-80
2024/01/30 22:29:53;;;;;;;;;;;;;;;14.38;71.86;101860.31;10343106;28;97463;-81
2024/01/30 22:34:56;;;;;;;;;;;;;;;14.39;71.71;101856.75;10341800;28;96700;-81
2024/01/30 22:40:01;;;;;;;;;;;;;;;14.34;71.94;101858.66;10342487;28;97156;-81
2024/01/30 22:45:05;;;;;;;;;;;;;;;14.32;71.82;101868.44;10341463;28;97297;-80
2024/01/30 22:50:08;;;;;;;;;;;;;;;14.27;72.26;101859.75;10338548;28;96668;-80
2024/01/30 22:55:13;;;;;;;;;;;;;;;14.23;72.30;101869.56;10335299;28;97198;-81
2024/01/30 23:00:24;;;;;;;;;;;;;;;14.22;72.38;101874.91;10345825;28;96785;-81
2024/01/30 23:05:27;;;;;;;;;;;;;;;14.15;71.96;101870.69;10376794;28;97386;-81
2024/01/30 23:10:32;;;;;;;;;;;;;;;14.11;72.57;101872.56;10375827;28;97215;-81
2024/01/30 23:15:36;;;;;;;;;;;;;;;14.05;72.70;101886.00;10375514;28;96747;-81
2024/01/30 23:20:39;;;;;;;;;;;;;;;14.08;72.15;101883.25;10373635;28;97310;-81
2024/01/30 23:25:43;;;;;;;;;;;;;;;13.99;72.79;101895.81;10334241;28;96657;-81
2024/01/30 23:30:46;;;;;;;;;;;;;;;14.00;72.31;101887.00;10334284;28;97073;-81
2024/01/30 23:35:50;;;;;;;;;;;;;;;13.95;72.50;101907.44;10356689;28;97198;-80
2024/01/30 23:40:55;;;;;;;;;;;;;;;13.96;72.36;101915.31;10363037;28;96930;-80
2024/01/30 23:45:58;;;;;;;;;;;;;;;13.94;72.76;101911.84;10332476;28;96846;-81
2024/01/30 23:51:01;;;;;;;;;;;;;;;13.90;72.90;101920.75;10333973;28;96933;-80
2024/01/30 23:56:06;;;;;;;;;;;;;;;13.88;72.97;101916.44;10333286;28;97218;-80
